sensor_id;sensor_type;location;lat;lon;timestamp;pressure;altitude;pressure_sealevel;temperature
67515;BMP280;60646;55.802;37.032;2023-05-10T00:01:40;100742.28;;;12.18
67515;BMP280;60646;55.802;37.032;2023-05-10T00:04:06;100761.47;;;12.31
67515;BMP280;60646;55.802;37.032;2023-05-10T00:06:34;100770.59;;;12.39
67515;BMP280;60646;55.802;37.032;2023-05-10T00:09:00;100766.63;;;12.35
67515;BMP280;60646;55.802;37.032;2023-05-10T00:11:26;100766.16;;;12.36
67515;BMP280;60646;55.802;37.032;2023-05-10T00:13:52;100767.66;;;12.37
67515;BMP280;60646;55.802;37.032;2023-05-10T00:16:22;100773.53;;;12.41
67515;BMP280;60646;55.802;37.032;2023-05-10T00:18:48;100754.34;;;12.28
67515;BMP280;60646;55.802;37.032;2023-05-10T00:21:16;100770.59;;;12.39
67515;BMP280;60646;55.802;37.032;2023-05-10T00:23:44;100770.59;;;12.39
67515;BMP280;60646;55.802;37.032;2023-05-10T00:26:10;100773.53;;;12.41
67515;BMP280;60646;55.802;37.032;2023-05-10T00:28:40;100757.97;;;12.25
67515;BMP280;60646;55.802;37.032;2023-05-10T00:31:05;100790.25;;;12.51
67515;BMP280;60646;55.802;37.032;2023-05-10T00:33:31;100756.78;;;12.26
67515;BMP280;60646;55.802;37.032;2023-05-10T00:35:57;100778.19;;;12.41
67515;BMP280;60646;55.802;37.032;2023-05-10T00:38:23;100771.53;;;12.36
67515;BMP280;60646;55.802;37.032;2023-05-10T00:40:49;100769.50;;;12.31
67515;BMP280;60646;55.802;37.032;2023-05-10T00:43:24;100767.13;;;12.33
67515;BMP280;60646;55.802;37.032;2023-05-10T00:45:50;100777.84;;;12.33
67515;BMP280;60646;55.802;37.032;2023-05-10T00:48:16;100760.09;;;12.21
67515;BMP280;60646;55.802;37.032;2023-05-10T00:50:42;100749.22;;;12.10
67515;BMP280;60646;55.802;37.032;2023-05-10T00:53:08;100753.19;;;12.14
67515;BMP280;60646;55.802;37.032;2023-05-10T00:55:35;100768.78;;;12.16
67515;BMP280;60646;55.802;37.032;2023-05-10T00:58:00;100775.25;;;12.24
67515;BMP280;60646;55.802;37.032;2023-05-10T01:00:27;100748.94;;;12.08
67515;BMP280;60646;55.802;37.032;2023-05-10T01:02:53;100794.44;;;12.37
67515;BMP280;60646;55.802;37.032;2023-05-10T01:05:20;100776.00;;;12.24
67515;BMP280;60646;55.802;37.032;2023-05-10T01:07:46;100771.75;;;12.18
67515;BMP280;60646;55.802;37.032;2023-05-10T01:10:12;100762.88;;;12.12
67515;BMP280;60646;55.802;37.032;2023-05-10T01:12:40;100761.97;;;12.15
67515;BMP280;60646;55.802;37.032;2023-05-10T01:15:07;100751.25;;;12.00
67515;BMP280;60646;55.802;37.032;2023-05-10T01:17:35;100760.47;;;12.14
67515;BMP280;60646;55.802;37.032;2023-05-10T01:20:03;100764.38;;;12.13
67515;BMP280;60646;55.802;37.032;2023-05-10T01:28:44;100782.63;;;12.29
67515;BMP280;60646;55.802;37.032;2023-05-10T01:34:17;100777.09;;;12.18
67515;BMP280;60646;55.802;37.032;2023-05-10T01:37:06;100766.50;;;12.09
67515;BMP280;60646;55.802;37.032;2023-05-10T01:39:36;100789.31;;;12.19
67515;BMP280;60646;55.802;37.032;2023-05-10T01:42:24;100783.75;;;12.22
67515;BMP280;60646;55.802;37.032;2023-05-10T01:45:05;100745.81;;;11.95
67515;BMP280;60646;55.802;37.032;2023-05-10T01:50:24;100762.09;;;12.06
67515;BMP280;60646;55.802;37.032;2023-05-10T01:52:56;100780.09;;;12.20
67515;BMP280;60646;55.802;37.032;2023-05-10T01:55:26;100753.47;;;12.02
67515;BMP280;60646;55.802;37.032;2023-05-10T01:58:02;100776.44;;;12.23
67515;BMP280;60646;55.802;37.032;2023-05-10T02:00:29;100757.91;;;12.05
67515;BMP280;60646;55.802;37.032;2023-05-10T02:02:57;100758.44;;;12.09
67515;BMP280;60646;55.802;37.032;2023-05-10T02:05:24;100742.78;;;12.02
67515;BMP280;60646;55.802;37.032;2023-05-10T02:07:51;100759.41;;;12.06
67515;BMP280;60646;55.802;37.032;2023-05-10T02:10:18;100751.25;;;12.00
67515;BMP280;60646;55.802;37.032;2023-05-10T02:12:48;100773.25;;;12.19
67515;BMP280;60646;55.802;37.032;2023-05-10T02:15:20;100772.50;;;12.18
67515;BMP280;60646;55.802;37.032;2023-05-10T02:17:47;100754.41;;;11.99
67515;BMP280;60646;55.802;37.032;2023-05-10T02:20:14;100760.84;;;12.07
67515;BMP280;60646;55.802;37.032;2023-05-10T02:22:41;100759.41;;;12.06
67515;BMP280;60646;55.802;37.032;2023-05-10T02:25:08;100738.53;;;11.95
67515;BMP280;60646;55.802;37.032;2023-05-10T02:27:36;100752.44;;;12.14
67515;BMP280;60646;55.802;37.032;2023-05-10T02:30:02;100757.16;;;12.19
67515;BMP280;60646;55.802;37.032;2023-05-10T02:32:31;100735.53;;;12.08
67515;BMP280;60646;55.802;37.032;2023-05-10T02:34:58;100730.84;;;12.03
67515;BMP280;60646;55.802;37.032;2023-05-10T02:37:26;100750.09;;;12.21
67515;BMP280;60646;55.802;37.032;2023-05-10T02:39:54;100765.28;;;12.24
67515;BMP280;60646;55.802;37.032;2023-05-10T02:42:26;100742.00;;;12.16
67515;BMP280;60646;55.802;37.032;2023-05-10T02:44:54;100748.63;;;12.20
67515;BMP280;60646;55.802;37.032;2023-05-10T02:47:22;100764.16;;;12.31
67515;BMP280;60646;55.802;37.032;2023-05-10T02:49:48;100734.53;;;12.20
67515;BMP280;60646;55.802;37.032;2023-05-10T02:52:18;100773.28;;;12.39
67515;BMP280;60646;55.802;37.032;2023-05-10T02:54:45;100748.06;;;12.31
67515;BMP280;60646;55.802;37.032;2023-05-10T02:57:16;100765.06;;;12.43
67515;BMP280;60646;55.802;37.032;2023-05-10T02:59:45;100740.69;;;12.26
67515;BMP280;60646;55.802;37.032;2023-05-10T03:02:12;100764.31;;;12.42
67515;BMP280;60646;55.802;37.032;2023-05-10T03:04:38;100747.53;;;12.27
67515;BMP280;60646;55.802;37.032;2023-05-10T03:07:04;100754.91;;;12.32
67515;BMP280;60646;55.802;37.032;2023-05-10T03:09:31;100765.78;;;12.43
67515;BMP280;60646;55.802;37.032;2023-05-10T03:14:57;100753.06;;;12.38
67515;BMP280;60646;55.802;37.032;2023-05-10T03:17:45;100751.84;;;12.39
67515;BMP280;60646;55.802;37.032;2023-05-10T03:20:24;100743.25;;;12.35
67515;BMP280;60646;55.802;37.032;2023-05-10T03:23:00;100749.16;;;12.39
67515;BMP280;60646;55.802;37.032;2023-05-10T03:25:31;100738.63;;;12.36
67515;BMP280;60646;55.802;37.032;2023-05-10T03:27:57;100745.03;;;12.38
67515;BMP280;60646;55.802;37.032;2023-05-10T03:30:25;100732.28;;;12.33
67515;BMP280;60646;55.802;37.032;2023-05-10T03:32:51;100746.34;;;12.48
67515;BMP280;60646;55.802;37.032;2023-05-10T03:35:18;100755.75;;;12.58
67515;BMP280;60646;55.802;37.032;2023-05-10T03:37:44;100735.09;;;12.44
67515;BMP280;60646;55.802;37.032;2023-05-10T03:40:10;100736.19;;;12.52
67515;BMP280;60646;55.802;37.032;2023-05-10T03:42:39;100742.44;;;12.64
67515;BMP280;60646;55.802;37.032;2023-05-10T03:45:05;100735.50;;;12.57
67515;BMP280;60646;55.802;37.032;2023-05-10T03:47:32;100726.78;;;12.62
67515;BMP280;60646;55.802;37.032;2023-05-10T03:49:58;100739.63;;;12.73
67515;BMP280;60646;55.802;37.032;2023-05-10T03:52:24;100732.84;;;12.77
67515;BMP280;60646;55.802;37.032;2023-05-10T03:54:50;100709.06;;;12.65
67515;BMP280;60646;55.802;37.032;2023-05-10T03:57:17;100739.34;;;12.91
67515;BMP280;60646;55.802;37.032;2023-05-10T03:59:43;100736.94;;;12.93
67515;BMP280;60646;55.802;37.032;2023-05-10T04:02:09;100739.69;;;12.99
67515;BMP280;60646;55.802;37.032;2023-05-10T04:04:35;100755.47;;;13.17
67515;BMP280;60646;55.802;37.032;2023-05-10T04:07:01;100728.56;;;13.06
67515;BMP280;60646;55.802;37.032;2023-05-10T04:09:28;100734.00;;;13.17
67515;BMP280;60646;55.802;37.032;2023-05-10T04:11:54;100735.06;;;13.25
67515;BMP280;60646;55.802;37.032;2023-05-10T04:14:20;100738.56;;;13.31
67515;BMP280;60646;55.802;37.032;2023-05-10T04:16:46;100727.38;;;13.32
67515;BMP280;60646;55.802;37.032;2023-05-10T04:19:12;100724.44;;;13.36
67515;BMP280;60646;55.802;37.032;2023-05-10T04:21:38;100730.88;;;13.44
67515;BMP280;60646;55.802;37.032;2023-05-10T04:24:04;100715.97;;;13.43
67515;BMP280;60646;55.802;37.032;2023-05-10T04:26:30;100749.38;;;13.68
67515;BMP280;60646;55.802;37.032;2023-05-10T04:28:56;100747.50;;;13.74
67515;BMP280;60646;55.802;37.032;2023-05-10T04:31:22;100732.38;;;13.76
67515;BMP280;60646;55.802;37.032;2023-05-10T04:33:48;100736.53;;;13.77
67515;BMP280;60646;55.802;37.032;2023-05-10T04:36:15;100724.81;;;13.80
67515;BMP280;60646;55.802;37.032;2023-05-10T04:38:41;100704.06;;;13.81
67515;BMP280;60646;55.802;37.032;2023-05-10T04:41:10;100704.56;;;13.85
67515;BMP280;60646;55.802;37.032;2023-05-10T04:43:36;100733.88;;;14.14
67515;BMP280;60646;55.802;37.032;2023-05-10T04:46:03;100705.22;;;14.05
67515;BMP280;60646;55.802;37.032;2023-05-10T04:48:29;100714.06;;;14.17
67515;BMP280;60646;55.802;37.032;2023-05-10T04:50:55;100692.28;;;14.09
67515;BMP280;60646;55.802;37.032;2023-05-10T04:53:22;100711.25;;;14.32
67515;BMP280;60646;55.802;37.032;2023-05-10T04:55:49;100704.41;;;14.36
67515;BMP280;60646;55.802;37.032;2023-05-10T04:58:15;100703.94;;;14.43
67515;BMP280;60646;55.802;37.032;2023-05-10T05:00:41;100694.19;;;14.46
67515;BMP280;60646;55.802;37.032;2023-05-10T05:03:07;100716.47;;;14.63
67515;BMP280;60646;55.802;37.032;2023-05-10T05:05:33;100681.75;;;14.54
67515;BMP280;60646;55.802;37.032;2023-05-10T05:07:59;100695.25;;;14.70
67515;BMP280;60646;55.802;37.032;2023-05-10T05:10:25;100708.75;;;14.87
67515;BMP280;60646;55.802;37.032;2023-05-10T05:12:53;100697.75;;;14.85
67515;BMP280;60646;55.802;37.032;2023-05-10T05:15:19;100709.28;;;15.02
67515;BMP280;60646;55.802;37.032;2023-05-10T05:17:45;100696.56;;;15.08
67515;BMP280;60646;55.802;37.032;2023-05-10T05:20:11;100704.88;;;15.21
67515;BMP280;60646;55.802;37.032;2023-05-10T05:22:37;100695.84;;;15.24
67515;BMP280;60646;55.802;37.032;2023-05-10T05:25:03;100700.50;;;15.40
67515;BMP280;60646;55.802;37.032;2023-05-10T05:27:32;100665.25;;;15.27
67515;BMP280;60646;55.802;37.032;2023-05-10T05:29:58;100671.09;;;15.42
67515;BMP280;60646;55.802;37.032;2023-05-10T05:32:25;100697.06;;;15.68
67515;BMP280;60646;55.802;37.032;2023-05-10T05:34:52;100694.09;;;15.77
67515;BMP280;60646;55.802;37.032;2023-05-10T05:37:19;100708.75;;;15.98
67515;BMP280;60646;55.802;37.032;2023-05-10T05:39:47;100682.28;;;15.91
67515;BMP280;60646;55.802;37.032;2023-05-10T05:42:14;100690.09;;;16.11
67515;BMP280;60646;55.802;37.032;2023-05-10T05:44:42;100700.31;;;16.24
67515;BMP280;60646;55.802;37.032;2023-05-10T05:47:08;100678.00;;;16.23
67515;BMP280;60646;55.802;37.032;2023-05-10T05:49:34;100677.03;;;16.26
67515;BMP280;60646;55.802;37.032;2023-05-10T05:52:01;100696.28;;;16.52
67515;BMP280;60646;55.802;37.032;2023-05-10T05:54:28;100681.81;;;16.50
67515;BMP280;60646;55.802;37.032;2023-05-10T05:56:55;100687.59;;;16.70
67515;BMP280;60646;55.802;37.032;2023-05-10T05:59:22;100692.44;;;16.77
67515;BMP280;60646;55.802;37.032;2023-05-10T06:01:48;100673.56;;;16.77
67515;BMP280;60646;55.802;37.032;2023-05-10T06:04:14;100648.81;;;16.73
67515;BMP280;60646;55.802;37.032;2023-05-10T06:06:40;100660.25;;;16.85
67515;BMP280;60646;55.802;37.032;2023-05-10T06:09:07;100686.31;;;17.12
67515;BMP280;60646;55.802;37.032;2023-05-10T06:11:33;100682.56;;;17.21
67515;BMP280;60646;55.802;37.032;2023-05-10T06:13:59;100643.66;;;17.05
67515;BMP280;60646;55.802;37.032;2023-05-10T06:16:24;100664.59;;;17.29
67515;BMP280;60646;55.802;37.032;2023-05-10T06:18:50;100670.78;;;17.48
67515;BMP280;60646;55.802;37.032;2023-05-10T06:21:17;100664.16;;;17.49
67515;BMP280;60646;55.802;37.032;2023-05-10T06:23:44;100652.06;;;17.50
67515;BMP280;60646;55.802;37.032;2023-05-10T06:26:10;100656.81;;;17.68
67515;BMP280;60646;55.802;37.032;2023-05-10T06:28:35;100655.75;;;17.77
67515;BMP280;60646;55.802;37.032;2023-05-10T06:31:04;100665.91;;;17.89
67515;BMP280;60646;55.802;37.032;2023-05-10T06:33:31;100640.41;;;17.85
67515;BMP280;60646;55.802;37.032;2023-05-10T06:35:57;100666.91;;;18.10
67515;BMP280;60646;55.802;37.032;2023-05-10T06:38:24;100649.41;;;18.11
67515;BMP280;60646;55.802;37.032;2023-05-10T06:40:50;100666.59;;;18.33
67515;BMP280;60646;55.802;37.032;2023-05-10T06:43:17;100651.84;;;18.34
67515;BMP280;60646;55.802;37.032;2023-05-10T06:45:44;100647.59;;;18.38
67515;BMP280;60646;55.802;37.032;2023-05-10T06:48:10;100645.53;;;18.44
67515;BMP280;60646;55.802;37.032;2023-05-10T06:50:36;100643.13;;;18.54
67515;BMP280;60646;55.802;37.032;2023-05-10T06:53:01;100643.00;;;18.65
67515;BMP280;60646;55.802;37.032;2023-05-10T06:55:28;100668.06;;;18.84
67515;BMP280;60646;55.802;37.032;2023-05-10T06:57:55;100651.56;;;18.82
67515;BMP280;60646;55.802;37.032;2023-05-10T07:00:21;100648.06;;;18.87
67515;BMP280;60646;55.802;37.032;2023-05-10T07:02:47;100661.03;;;19.07
67515;BMP280;60646;55.802;37.032;2023-05-10T07:05:13;100629.34;;;18.89
67515;BMP280;60646;55.802;37.032;2023-05-10T07:07:42;100619.91;;;18.90
67515;BMP280;60646;55.802;37.032;2023-05-10T07:10:09;100594.13;;;18.76
67515;BMP280;60646;55.802;37.032;2023-05-10T07:12:35;100641.25;;;19.12
67515;BMP280;60646;55.802;37.032;2023-05-10T07:15:01;100639.53;;;19.09
67515;BMP280;60646;55.802;37.032;2023-05-10T07:17:28;100633.53;;;19.03
67515;BMP280;60646;55.802;37.032;2023-05-10T07:19:54;100639.03;;;19.11
67515;BMP280;60646;55.802;37.032;2023-05-10T07:22:20;100588.88;;;18.78
67515;BMP280;60646;55.802;37.032;2023-05-10T07:24:46;100635.94;;;19.07
67515;BMP280;60646;55.802;37.032;2023-05-10T07:27:12;100625.41;;;19.03
67515;BMP280;60646;55.802;37.032;2023-05-10T07:29:38;100622.38;;;19.07
67515;BMP280;60646;55.802;37.032;2023-05-10T07:32:04;100610.56;;;18.91
67515;BMP280;60646;55.802;37.032;2023-05-10T07:34:31;100624.44;;;19.01
67515;BMP280;60646;55.802;37.032;2023-05-10T07:37:00;100620.16;;;19.05
67515;BMP280;60646;55.802;37.032;2023-05-10T07:39:28;100616.22;;;19.06
67515;BMP280;60646;55.802;37.032;2023-05-10T07:41:55;100632.69;;;19.21
67515;BMP280;60646;55.802;37.032;2023-05-10T07:44:21;100613.69;;;19.08
67515;BMP280;60646;55.802;37.032;2023-05-10T07:46:47;100636.75;;;19.28
67515;BMP280;60646;55.802;37.032;2023-05-10T07:49:14;100609.56;;;19.20
67515;BMP280;60646;55.802;37.032;2023-05-10T07:51:39;100605.59;;;19.21
67515;BMP280;60646;55.802;37.032;2023-05-10T07:54:05;100597.03;;;19.17
67515;BMP280;60646;55.802;37.032;2023-05-10T07:56:32;100600.28;;;19.29
67515;BMP280;60646;55.802;37.032;2023-05-10T07:58:59;100620.81;;;19.50
67515;BMP280;60646;55.802;37.032;2023-05-10T08:01:25;100621.41;;;19.56
67515;BMP280;60646;55.802;37.032;2023-05-10T08:03:52;100596.91;;;19.49
67515;BMP280;60646;55.802;37.032;2023-05-10T08:06:19;100613.59;;;19.66
67515;BMP280;60646;55.802;37.032;2023-05-10T08:08:46;100615.69;;;19.73
67515;BMP280;60646;55.802;37.032;2023-05-10T08:11:16;100568.78;;;19.52
67515;BMP280;60646;55.802;37.032;2023-05-10T08:13:44;100592.22;;;19.76
67515;BMP280;60646;55.802;37.032;2023-05-10T08:16:09;100581.75;;;19.80
67515;BMP280;60646;55.802;37.032;2023-05-10T08:18:36;100599.72;;;20.03
67515;BMP280;60646;55.802;37.032;2023-05-10T08:21:02;100574.38;;;20.01
67515;BMP280;60646;55.802;37.032;2023-05-10T08:23:28;100595.56;;;20.23
67515;BMP280;60646;55.802;37.032;2023-05-10T08:25:54;100586.25;;;20.31
67515;BMP280;60646;55.802;37.032;2023-05-10T08:28:19;100566.31;;;20.29
67515;BMP280;60646;55.802;37.032;2023-05-10T08:30:45;100560.63;;;20.40
67515;BMP280;60646;55.802;37.032;2023-05-10T08:33:11;100549.09;;;20.47
67515;BMP280;60646;55.802;37.032;2023-05-10T08:35:37;100557.50;;;20.57
67515;BMP280;60646;55.802;37.032;2023-05-10T08:38:03;100536.56;;;20.65
67515;BMP280;60646;55.802;37.032;2023-05-10T08:40:29;100569.66;;;20.91
67515;BMP280;60646;55.802;37.032;2023-05-10T08:43:06;100576.31;;;21.11
67515;BMP280;60646;55.802;37.032;2023-05-10T08:45:37;100577.78;;;21.20
67515;BMP280;60646;55.802;37.032;2023-05-10T08:48:06;100575.81;;;21.28
67515;BMP280;60646;55.802;37.032;2023-05-10T08:50:35;100548.22;;;21.16
67515;BMP280;60646;55.802;37.032;2023-05-10T08:53:06;100570.63;;;21.45
67515;BMP280;60646;55.802;37.032;2023-05-10T08:55:33;100565.22;;;21.52
67515;BMP280;60646;55.802;37.032;2023-05-10T08:57:59;100533.66;;;21.42
67515;BMP280;60646;55.802;37.032;2023-05-10T09:00:26;100537.31;;;21.52
67515;BMP280;60646;55.802;37.032;2023-05-10T09:02:54;100535.16;;;21.58
67515;BMP280;60646;55.802;37.032;2023-05-10T09:05:20;100543.13;;;21.71
67515;BMP280;60646;55.802;37.032;2023-05-10T09:07:46;100533.34;;;21.75
67515;BMP280;60646;55.802;37.032;2023-05-10T09:10:13;100551.91;;;21.92
67515;BMP280;60646;55.802;37.032;2023-05-10T09:12:55;100558.06;;;22.00
67515;BMP280;60646;55.802;37.032;2023-05-10T09:15:22;100549.38;;;22.02
67515;BMP280;60646;55.802;37.032;2023-05-10T09:17:49;100544.31;;;22.06
67515;BMP280;60646;55.802;37.032;2023-05-10T09:20:15;100543.94;;;22.09
67515;BMP280;60646;55.802;37.032;2023-05-10T09:22:43;100538.84;;;22.13
67515;BMP280;60646;55.802;37.032;2023-05-10T09:25:14;100526.13;;;22.08
67515;BMP280;60646;55.802;37.032;2023-05-10T09:27:54;100542.25;;;22.21
67515;BMP280;60646;55.802;37.032;2023-05-10T09:30:28;100536.47;;;22.25
67515;BMP280;60646;55.802;37.032;2023-05-10T09:32:56;100525.03;;;22.11
67515;BMP280;60646;55.802;37.032;2023-05-10T09:35:25;100535.03;;;22.24
67515;BMP280;60646;55.802;37.032;2023-05-10T09:37:53;100525.03;;;22.19
67515;BMP280;60646;55.802;37.032;2023-05-10T09:40:23;100498.56;;;22.04
67515;BMP280;60646;55.802;37.032;2023-05-10T09:43:08;100538.09;;;22.35
67515;BMP280;60646;55.802;37.032;2023-05-10T09:45:35;100511.06;;;22.22
67515;BMP280;60646;55.802;37.032;2023-05-10T09:48:02;100509.94;;;22.25
67515;BMP280;60646;55.802;37.032;2023-05-10T09:50:30;100527.91;;;22.43
67515;BMP280;60646;55.802;37.032;2023-05-10T09:55:40;100519.72;;;22.58
67515;BMP280;60646;55.802;37.032;2023-05-10T09:58:07;100497.97;;;22.43
67515;BMP280;60646;55.802;37.032;2023-05-10T10:00:38;100519.16;;;22.67
67515;BMP280;60646;55.802;37.032;2023-05-10T10:03:04;100503.56;;;22.60
67515;BMP280;60646;55.802;37.032;2023-05-10T10:05:32;100513.31;;;22.79
67515;BMP280;60646;55.802;37.032;2023-05-10T10:07:59;100515.25;;;22.86
67515;BMP280;60646;55.802;37.032;2023-05-10T10:10:26;100513.81;;;22.92
67515;BMP280;60646;55.802;37.032;2023-05-10T10:12:54;100502.34;;;22.94
67515;BMP280;60646;55.802;37.032;2023-05-10T10:15:21;100494.34;;;22.96
67515;BMP280;60646;55.802;37.032;2023-05-10T10:17:48;100501.50;;;23.16
67515;BMP280;60646;55.802;37.032;2023-05-10T10:20:16;100502.22;;;23.24
67515;BMP280;60646;55.802;37.032;2023-05-10T10:22:46;100488.56;;;23.24
67515;BMP280;60646;55.802;37.032;2023-05-10T10:25:15;100499.59;;;23.33
67515;BMP280;60646;55.802;37.032;2023-05-10T10:35:59;100496.81;;;23.41
67515;BMP280;60646;55.802;37.032;2023-05-10T10:38:58;100489.13;;;23.47
67515;BMP280;60646;55.802;37.032;2023-05-10T10:41:37;100490.44;;;23.46
67515;BMP280;60646;55.802;37.032;2023-05-10T10:49:51;100472.44;;;23.43
67515;BMP280;60646;55.802;37.032;2023-05-10T10:55:13;100487.41;;;23.59
67515;BMP280;60646;55.802;37.032;2023-05-10T11:00:32;100462.34;;;23.53
67515;BMP280;60646;55.802;37.032;2023-05-10T11:03:10;100482.13;;;23.61
67515;BMP280;60646;55.802;37.032;2023-05-10T11:05:45;100455.44;;;23.52
67515;BMP280;60646;55.802;37.032;2023-05-10T11:08:28;100462.56;;;23.55
67515;BMP280;60646;55.802;37.032;2023-05-10T11:16:21;100464.59;;;23.72
67515;BMP280;60646;55.802;37.032;2023-05-10T11:18:58;100448.81;;;23.63
67515;BMP280;60646;55.802;37.032;2023-05-10T11:21:24;100449.22;;;23.59
67515;BMP280;60646;55.802;37.032;2023-05-10T11:23:55;100442.13;;;23.56
67515;BMP280;60646;55.802;37.032;2023-05-10T11:26:23;100442.53;;;23.52
67515;BMP280;60646;55.802;37.032;2023-05-10T11:28:53;100442.00;;;23.54
67515;BMP280;60646;55.802;37.032;2023-05-10T11:31:21;100429.19;;;23.39
67515;BMP280;60646;55.802;37.032;2023-05-10T11:33:51;100454.66;;;23.59
67515;BMP280;60646;55.802;37.032;2023-05-10T11:36:36;100431.13;;;23.46
67515;BMP280;60646;55.802;37.032;2023-05-10T11:39:04;100439.69;;;23.43
67515;BMP280;60646;55.802;37.032;2023-05-10T11:41:31;100425.41;;;23.35
67515;BMP280;60646;55.802;37.032;2023-05-10T11:43:58;100443.88;;;23.44
67515;BMP280;60646;55.802;37.032;2023-05-10T11:46:27;100412.69;;;23.30
67515;BMP280;60646;55.802;37.032;2023-05-10T11:48:57;100414.88;;;23.31
67515;BMP280;60646;55.802;37.032;2023-05-10T11:51:25;100442.41;;;23.50
67515;BMP280;60646;55.802;37.032;2023-05-10T11:53:55;100425.66;;;23.46
67515;BMP280;60646;55.802;37.032;2023-05-10T11:56:26;100410.50;;;23.36
67515;BMP280;60646;55.802;37.032;2023-05-10T11:58:56;100412.09;;;23.39
67515;BMP280;60646;55.802;37.032;2023-05-10T12:01:25;100431.09;;;23.54
67515;BMP280;60646;55.802;37.032;2023-05-10T12:03:54;100435.06;;;23.53
67515;BMP280;60646;55.802;37.032;2023-05-10T12:06:21;100409.53;;;23.41
67515;BMP280;60646;55.802;37.032;2023-05-10T12:08:48;100400.34;;;23.29
67515;BMP280;60646;55.802;37.032;2023-05-10T12:11:19;100393.47;;;23.28
67515;BMP280;60646;55.802;37.032;2023-05-10T12:13:47;100427.84;;;23.48
67515;BMP280;60646;55.802;37.032;2023-05-10T12:16:22;100425.44;;;23.52
67515;BMP280;60646;55.802;37.032;2023-05-10T12:18:53;100406.50;;;23.37
67515;BMP280;60646;55.802;37.032;2023-05-10T12:21:20;100383.75;;;23.34
67515;BMP280;60646;55.802;37.032;2023-05-10T12:23:48;100400.41;;;23.46
67515;BMP280;60646;55.802;37.032;2023-05-10T12:26:14;100407.63;;;23.51
67515;BMP280;60646;55.802;37.032;2023-05-10T12:28:42;100414.25;;;23.65
67515;BMP280;60646;55.802;37.032;2023-05-10T12:31:08;100391.63;;;23.55
67515;BMP280;60646;55.802;37.032;2023-05-10T12:33:41;100398.34;;;23.71
67515;BMP280;60646;55.802;37.032;2023-05-10T12:36:09;100364.94;;;23.46
67515;BMP280;60646;55.802;37.032;2023-05-10T12:38:40;100406.53;;;23.71
67515;BMP280;60646;55.802;37.032;2023-05-10T12:41:10;100383.03;;;23.58
67515;BMP280;60646;55.802;37.032;2023-05-10T12:43:37;100389.03;;;23.57
67515;BMP280;60646;55.802;37.032;2023-05-10T12:46:09;100410.53;;;23.70
67515;BMP280;60646;55.802;37.032;2023-05-10T12:48:36;100402.22;;;23.68
67515;BMP280;60646;55.802;37.032;2023-05-10T12:51:03;100394.97;;;23.63
67515;BMP280;60646;55.802;37.032;2023-05-10T12:53:31;100399.28;;;23.66
67515;BMP280;60646;55.802;37.032;2023-05-10T12:55:56;100368.63;;;23.41
67515;BMP280;60646;55.802;37.032;2023-05-10T12:58:23;100400.75;;;23.67
67515;BMP280;60646;55.802;37.032;2023-05-10T13:00:49;100380.34;;;23.51
67515;BMP280;60646;55.802;37.032;2023-05-10T13:03:17;100366.78;;;23.43
67515;BMP280;60646;55.802;37.032;2023-05-10T13:05:43;100379.06;;;23.52
67515;BMP280;60646;55.802;37.032;2023-05-10T13:08:11;100384.09;;;23.55
67515;BMP280;60646;55.802;37.032;2023-05-10T13:10:37;100374.72;;;23.49
67515;BMP280;60646;55.802;37.032;2023-05-10T13:13:03;100363.16;;;23.41
67515;BMP280;60646;55.802;37.032;2023-05-10T13:15:30;100364.22;;;23.45
67515;BMP280;60646;55.802;37.032;2023-05-10T13:17:55;100374.06;;;23.41
67515;BMP280;60646;55.802;37.032;2023-05-10T13:20:22;100378.59;;;23.46
67515;BMP280;60646;55.802;37.032;2023-05-10T13:22:49;100383.06;;;23.51
67515;BMP280;60646;55.802;37.032;2023-05-10T13:25:15;100359.94;;;23.35
67515;BMP280;60646;55.802;37.032;2023-05-10T13:27:42;100359.94;;;23.35
67515;BMP280;60646;55.802;37.032;2023-05-10T13:30:10;100358.47;;;23.34
67515;BMP280;60646;55.802;37.032;2023-05-10T13:32:37;100376.03;;;23.48
67515;BMP280;60646;55.802;37.032;2023-05-10T13:35:05;100358.47;;;23.34
67515;BMP280;60646;55.802;37.032;2023-05-10T13:37:32;100355.41;;;23.30
67515;BMP280;60646;55.802;37.032;2023-05-10T13:40:01;100342.59;;;23.23
67515;BMP280;60646;55.802;37.032;2023-05-10T13:42:32;100360.25;;;23.39
67515;BMP280;60646;55.802;37.032;2023-05-10T13:45:00;100376.91;;;23.50
67515;BMP280;60646;55.802;37.032;2023-05-10T13:47:33;100342.19;;;23.26
67515;BMP280;60646;55.802;37.032;2023-05-10T13:49:59;100352.09;;;23.39
67515;BMP280;60646;55.802;37.032;2023-05-10T13:52:30;100355.34;;;23.37
67515;BMP280;60646;55.802;37.032;2023-05-10T13:54:56;100341.25;;;23.31
67515;BMP280;60646;55.802;37.032;2023-05-10T13:57:22;100344.72;;;23.32
67515;BMP280;60646;55.802;37.032;2023-05-10T13:59:50;100340.50;;;23.31
67515;BMP280;60646;55.802;37.032;2023-05-10T14:02:16;100348.22;;;23.42
67515;BMP280;60646;55.802;37.032;2023-05-10T14:04:42;100365.59;;;23.54
67515;BMP280;60646;55.802;37.032;2023-05-10T14:07:08;100372.25;;;23.60
67515;BMP280;60646;55.802;37.032;2023-05-10T14:09:33;100346.00;;;23.48
67515;BMP280;60646;55.802;37.032;2023-05-10T14:11:59;100362.78;;;23.62
67515;BMP280;60646;55.802;37.032;2023-05-10T14:14:25;100344.88;;;23.51
67515;BMP280;60646;55.802;37.032;2023-05-10T14:16:51;100342.00;;;23.49
67515;BMP280;60646;55.802;37.032;2023-05-10T14:19:17;100338.38;;;23.46
67515;BMP280;60646;55.802;37.032;2023-05-10T14:21:43;100333.81;;;23.49
67515;BMP280;60646;55.802;37.032;2023-05-10T14:24:08;100333.97;;;23.51
67515;BMP280;60646;55.802;37.032;2023-05-10T14:26:34;100337.59;;;23.53
67515;BMP280;60646;55.802;37.032;2023-05-10T14:29:00;100356.78;;;23.63
67515;BMP280;60646;55.802;37.032;2023-05-10T14:31:26;100356.78;;;23.63